createdAt,value
2024-04-30T00:00:33.733Z,2
2024-04-30T00:02:33.815Z,2
2024-04-30T00:04:33.994Z,2
2024-04-30T00:06:34.018Z,2
2024-04-30T00:08:34.149Z,2
2024-04-30T00:10:34.376Z,2
2024-04-30T00:12:34.341Z,3
2024-04-30T00:14:34.476Z,2
2024-04-30T00:16:34.674Z,2
2024-04-30T00:20:34.809Z,2
2024-04-30T00:22:34.939Z,2
2024-04-30T00:24:35.032Z,2
2024-04-30T00:26:35.245Z,2
2024-04-30T00:28:35.304Z,2
2024-04-30T00:30:35.368Z,2
2024-04-30T00:32:35.527Z,2
2024-04-30T00:34:35.642Z,2
2024-04-30T00:36:35.709Z,2
2024-04-30T00:40:35.981Z,2
2024-04-30T00:42:36.051Z,2
2024-04-30T00:44:36.211Z,2
2024-04-30T00:46:36.336Z,2
2024-04-30T00:48:36.460Z,2
2024-04-30T00:50:36.455Z,2
2024-04-30T00:52:36.610Z,2
2024-04-30T00:54:36.690Z,2
2024-04-30T00:56:36.767Z,2
2024-04-30T00:58:36.960Z,2
2024-04-30T01:00:37.040Z,2
2024-04-30T01:02:37.107Z,1
2024-04-30T01:04:37.338Z,2
2024-04-30T01:06:37.320Z,2
2024-04-30T01:08:37.479Z,2
2024-04-30T01:10:37.550Z,2
2024-04-30T01:14:37.732Z,1
2024-04-30T01:16:37.912Z,2
2024-04-30T01:18:37.935Z,1
2024-04-30T01:20:38.060Z,2
2024-04-30T01:22:38.157Z,2
2024-04-30T01:26:38.341Z,1
2024-04-30T01:28:38.456Z,1
2024-04-30T01:30:38.532Z,1
2024-04-30T01:34:38.787Z,2
2024-04-30T01:38:38.943Z,2
2024-04-30T01:40:39.149Z,2
2024-04-30T01:42:39.159Z,2
2024-04-30T01:44:39.234Z,2
2024-04-30T01:46:39.416Z,2
2024-04-30T01:48:39.474Z,2
2024-04-30T01:52:39.656Z,1
2024-04-30T01:54:39.732Z,2
2024-04-30T01:56:39.860Z,2
2024-04-30T01:58:40.025Z,2
2024-04-30T02:00:40.077Z,2
2024-04-30T02:02:40.226Z,1
2024-04-30T02:04:46.246Z,2
2024-04-30T02:06:40.358Z,2
2024-04-30T02:08:40.440Z,2
2024-04-30T02:10:40.622Z,2
2024-04-30T02:16:40.964Z,2
2024-04-30T02:20:41.070Z,2
2024-04-30T02:22:41.250Z,2
2024-04-30T02:24:41.275Z,2
2024-04-30T02:26:41.360Z,2
2024-04-30T02:30:41.560Z,2
2024-04-30T02:40:42.081Z,2
2024-04-30T02:42:42.209Z,2
2024-04-30T02:44:42.221Z,2
2024-04-30T02:46:42.366Z,2
2024-04-30T02:48:42.468Z,2
2024-04-30T02:50:42.510Z,2
2024-04-30T02:52:42.647Z,2
2024-04-30T03:02:43.161Z,2
2024-04-30T03:04:43.296Z,2
2024-04-30T03:06:43.381Z,2
2024-04-30T03:08:43.382Z,2
2024-04-30T03:10:43.515Z,2
2024-04-30T03:12:43.593Z,3
2024-04-30T03:14:43.661Z,3
2024-04-30T03:16:43.718Z,3
2024-04-30T03:18:43.813Z,3
2024-04-30T03:20:43.927Z,3
2024-04-30T03:22:44.010Z,3
2024-04-30T03:24:44.144Z,3
2024-04-30T03:26:44.248Z,3
2024-04-30T03:28:44.331Z,4
2024-04-30T03:30:44.486Z,4
2024-04-30T03:32:44.532Z,4
2024-04-30T03:34:44.567Z,13
2024-04-30T03:36:44.641Z,8
2024-04-30T03:38:44.726Z,6
2024-04-30T03:40:44.847Z,5
2024-04-30T03:42:44.901Z,5
2024-04-30T03:44:44.984Z,5
2024-04-30T03:46:45.126Z,4
2024-04-30T03:48:45.150Z,4
2024-04-30T03:50:45.398Z,4
2024-04-30T03:52:45.350Z,4
2024-04-30T03:54:45.435Z,3
2024-04-30T03:56:45.525Z,3
2024-04-30T04:00:45.726Z,2
2024-04-30T04:02:45.818Z,3
2024-04-30T04:04:45.916Z,2
2024-04-30T04:06:45.972Z,3
2024-04-30T04:08:46.066Z,2
2024-04-30T04:10:46.209Z,2
2024-04-30T04:15:16.423Z,3
2024-04-30T04:17:16.608Z,3
2024-04-30T04:19:16.695Z,3
2024-04-30T04:21:18.968Z,3
2024-04-30T04:23:16.898Z,3
2024-04-30T04:25:16.990Z,3
2024-04-30T04:27:17.113Z,3
2024-04-30T04:31:17.364Z,3
2024-04-30T04:33:17.512Z,3
2024-04-30T04:35:17.594Z,3
2024-04-30T04:37:17.831Z,3
2024-04-30T04:39:17.801Z,3
2024-04-30T04:41:17.944Z,3
2024-04-30T04:43:18.079Z,2
2024-04-30T04:45:18.165Z,2
2024-04-30T04:47:18.318Z,3
2024-04-30T04:49:18.466Z,2
2024-04-30T04:51:18.502Z,3
2024-04-30T04:53:18.604Z,3
2024-04-30T04:55:18.748Z,3
2024-04-30T04:57:18.874Z,3
2024-04-30T05:01:19.180Z,3
2024-04-30T05:03:19.222Z,3
2024-04-30T05:05:19.292Z,3
2024-04-30T05:07:19.462Z,3
2024-04-30T05:09:19.579Z,4
2024-04-30T05:13:19.787Z,4
2024-04-30T05:15:19.887Z,4
2024-04-30T05:17:20.033Z,3
2024-04-30T05:19:20.119Z,4
2024-04-30T05:21:20.324Z,3
2024-04-30T05:27:20.534Z,4
2024-04-30T05:29:20.650Z,3
2024-04-30T05:31:20.827Z,4
2024-04-30T05:33:20.907Z,4
2024-04-30T05:35:21.043Z,4
2024-04-30T05:37:21.147Z,4
2024-04-30T05:39:21.212Z,4
2024-04-30T05:41:21.309Z,4
2024-04-30T05:43:21.459Z,4
2024-04-30T05:45:21.547Z,3
2024-04-30T05:47:21.645Z,3
2024-04-30T05:49:21.799Z,3
2024-04-30T05:51:21.868Z,4
2024-04-30T05:53:21.956Z,4
2024-04-30T05:55:22.061Z,3
2024-04-30T05:57:22.166Z,3
2024-04-30T05:59:22.279Z,3
2024-04-30T06:01:22.425Z,3
2024-04-30T06:03:22.491Z,3
2024-04-30T06:05:22.679Z,2
2024-04-30T06:07:22.689Z,3
2024-04-30T06:09:22.781Z,3
2024-04-30T06:11:22.899Z,2
2024-04-30T06:13:23.015Z,2
2024-04-30T06:19:23.299Z,2
2024-04-30T06:21:31.063Z,2
2024-04-30T06:23:23.528Z,2
2024-04-30T06:25:23.596Z,2
2024-04-30T06:27:23.662Z,2
2024-04-30T06:29:23.843Z,3
2024-04-30T06:31:23.916Z,3
2024-04-30T06:33:24.066Z,2
2024-04-30T06:35:24.073Z,2
2024-04-30T06:41:24.358Z,2
2024-04-30T06:45:24.649Z,2
2024-04-30T06:47:24.774Z,2
2024-04-30T06:49:26.590Z,2
2024-04-30T06:51:24.861Z,2
2024-04-30T06:53:24.964Z,2
2024-04-30T06:55:25.071Z,2
2024-04-30T06:57:25.160Z,2
2024-04-30T06:59:25.242Z,2
2024-04-30T07:01:25.385Z,2
2024-04-30T07:03:25.459Z,2
2024-04-30T07:05:25.679Z,2
2024-04-30T07:07:25.701Z,2
2024-04-30T07:09:25.748Z,2
2024-04-30T07:11:25.928Z,2
2024-04-30T07:13:26.014Z,2
2024-04-30T07:17:26.247Z,2
2024-04-30T07:23:26.424Z,2
2024-04-30T07:25:26.556Z,2
2024-04-30T07:27:26.674Z,2
2024-04-30T07:29:26.755Z,2
2024-04-30T07:31:26.826Z,2
2024-04-30T07:33:26.992Z,2
2024-04-30T07:35:27.055Z,2
2024-04-30T07:37:27.108Z,2
2024-04-30T07:39:27.164Z,2
2024-04-30T07:41:27.241Z,2
2024-04-30T07:43:27.359Z,2
2024-04-30T07:45:27.424Z,2
2024-04-30T07:49:27.689Z,2
2024-04-30T07:53:27.776Z,2
2024-04-30T07:57:58.012Z,2
2024-04-30T07:59:58.129Z,2
2024-04-30T08:01:58.307Z,2
2024-04-30T08:03:58.387Z,2
2024-04-30T08:06:01.473Z,2
2024-04-30T08:07:58.660Z,2
2024-04-30T08:09:58.718Z,2
2024-04-30T08:13:58.895Z,2
2024-04-30T08:15:59.008Z,2
2024-04-30T08:17:59.228Z,2
2024-04-30T08:21:59.385Z,3
2024-04-30T08:23:59.540Z,2
2024-04-30T08:25:59.580Z,2
2024-04-30T08:27:59.674Z,2
2024-04-30T08:31:59.903Z,2
2024-04-30T08:34:00.010Z,2
2024-04-30T08:36:00.129Z,2
2024-04-30T08:42:00.481Z,2
2024-04-30T08:44:00.579Z,2
2024-04-30T08:48:00.874Z,2
2024-04-30T08:50:09.400Z,2
2024-04-30T08:52:01.117Z,2
2024-04-30T08:54:01.078Z,2
2024-04-30T08:56:01.117Z,2
2024-04-30T08:58:01.238Z,2
2024-04-30T09:00:01.312Z,1
2024-04-30T09:02:01.457Z,2
2024-04-30T09:04:01.635Z,2
2024-04-30T10:48:13.424Z,1
2024-04-30T10:50:18.795Z,2
2024-04-30T10:52:13.028Z,1
2024-04-30T10:54:13.077Z,1
2024-04-30T10:56:13.167Z,1
2024-04-30T10:58:13.314Z,1
2024-04-30T11:00:13.364Z,1
2024-04-30T11:04:13.675Z,1
2024-04-30T11:10:13.882Z,1
2024-04-30T11:12:13.954Z,1
2024-04-30T11:14:13.999Z,1
2024-04-30T11:16:16.326Z,1
2024-04-30T11:18:14.231Z,1
2024-04-30T11:20:14.294Z,1
2024-04-30T11:22:14.357Z,1
2024-04-30T11:24:14.619Z,1
2024-04-30T11:26:14.604Z,1
2024-04-30T11:28:14.757Z,1
2024-04-30T11:30:14.813Z,1
2024-04-30T11:34:15.009Z,1
2024-04-30T11:38:45.238Z,1
2024-04-30T11:40:45.337Z,1
2024-04-30T11:42:45.651Z,1
2024-04-30T11:44:45.560Z,1
2024-04-30T11:48:45.861Z,1
2024-04-30T11:52:46.117Z,1
2024-04-30T11:54:46.117Z,1
2024-04-30T11:56:46.292Z,1
2024-04-30T11:58:46.369Z,1
2024-04-30T12:00:46.514Z,1
2024-04-30T12:02:46.750Z,1
2024-04-30T12:06:46.755Z,1
2024-04-30T12:14:47.204Z,1
2024-04-30T12:16:48.433Z,1
2024-04-30T12:20:47.494Z,1
2024-04-30T12:24:47.721Z,1
2024-04-30T12:26:47.821Z,1
2024-04-30T12:28:47.957Z,1
2024-04-30T12:30:48.005Z,1
2024-04-30T12:32:48.133Z,1
2024-04-30T12:34:48.317Z,1
2024-04-30T12:50:48.987Z,1
2024-04-30T12:52:49.161Z,1
2024-04-30T12:54:49.215Z,2
2024-04-30T12:58:49.379Z,2
2024-04-30T13:00:49.513Z,1
2024-04-30T13:02:49.660Z,1
2024-04-30T13:04:49.737Z,0
2024-04-30T13:06:49.698Z,1
2024-04-30T13:08:49.779Z,1
2024-04-30T13:10:50.008Z,0
2024-04-30T13:12:49.941Z,1
2024-04-30T13:14:50.030Z,1
2024-04-30T13:16:50.162Z,1
2024-04-30T13:18:50.228Z,1
2024-04-30T13:21:20.406Z,1
2024-04-30T13:23:20.498Z,1
2024-04-30T13:25:20.636Z,1
2024-04-30T13:27:20.721Z,1
2024-04-30T13:31:21.008Z,1
2024-04-30T13:37:21.300Z,1
2024-04-30T13:41:21.535Z,1
2024-04-30T13:43:21.645Z,1
2024-04-30T13:45:21.715Z,1
2024-04-30T13:49:21.996Z,1
2024-04-30T13:53:22.159Z,1
2024-04-30T13:57:22.362Z,1
2024-04-30T13:59:22.476Z,1
2024-04-30T14:01:22.757Z,1
2024-04-30T14:03:22.671Z,1
2024-04-30T14:05:22.782Z,1
2024-04-30T14:07:22.911Z,1
2024-04-30T14:09:22.958Z,1
2024-04-30T14:11:23.101Z,1
2024-04-30T14:13:23.199Z,1
2024-04-30T14:15:23.266Z,1
2024-04-30T14:17:23.649Z,1
2024-04-30T14:23:23.741Z,1
2024-04-30T14:31:24.404Z,1
2024-04-30T14:37:24.400Z,1
2024-04-30T14:39:24.439Z,0
2024-04-30T14:43:24.709Z,1
2024-04-30T14:47:24.858Z,0
2024-04-30T14:49:24.937Z,1
2024-04-30T14:57:25.269Z,0
2024-04-30T14:59:25.354Z,1
2024-04-30T15:01:25.480Z,0
2024-04-30T15:03:25.613Z,1
2024-04-30T15:05:25.605Z,1
2024-04-30T15:11:55.950Z,0
2024-04-30T15:13:56.034Z,1
2024-04-30T15:15:56.146Z,1
2024-04-30T15:17:56.407Z,1
2024-04-30T15:19:56.383Z,0
2024-04-30T15:21:56.513Z,1
2024-04-30T15:23:56.654Z,0
2024-04-30T15:25:56.721Z,1
2024-04-30T15:27:56.835Z,1
2024-04-30T15:31:57.038Z,1
2024-04-30T15:33:57.158Z,1
2024-04-30T15:41:57.591Z,1
2024-04-30T15:43:57.710Z,1
2024-04-30T15:45:57.951Z,1
2024-04-30T15:49:58.059Z,1
2024-04-30T15:51:58.151Z,1
2024-04-30T15:59:58.568Z,1
2024-04-30T16:03:58.802Z,1
2024-04-30T16:05:58.859Z,1
2024-04-30T16:07:58.959Z,1
2024-04-30T16:09:59.057Z,1
2024-04-30T16:11:59.207Z,1
2024-04-30T16:13:59.292Z,1
2024-04-30T16:17:59.569Z,1
2024-04-30T16:19:59.555Z,1
2024-04-30T16:21:59.657Z,1
2024-04-30T16:23:59.756Z,1
2024-04-30T16:32:00.221Z,1
2024-04-30T16:36:00.348Z,1
2024-04-30T16:38:00.439Z,1
2024-04-30T16:42:00.618Z,1
2024-04-30T16:44:00.680Z,1
2024-04-30T16:46:00.806Z,1
2024-04-30T16:48:01.016Z,1
2024-04-30T16:50:00.987Z,1
2024-04-30T16:52:01.160Z,1
2024-04-30T16:54:01.194Z,1
2024-04-30T16:56:01.263Z,1
2024-04-30T16:58:01.400Z,1
2024-04-30T17:00:01.438Z,1
2024-04-30T17:02:01.492Z,1
2024-04-30T17:04:01.798Z,1
2024-04-30T17:06:01.662Z,1
2024-04-30T17:08:01.737Z,1
2024-04-30T17:10:01.929Z,1
2024-04-30T17:14:02.082Z,1
2024-04-30T17:16:32.141Z,1
2024-04-30T17:18:32.322Z,1
2024-04-30T17:20:32.390Z,1
2024-04-30T17:22:32.522Z,1
2024-04-30T17:24:32.667Z,1
2024-04-30T17:26:32.726Z,1
2024-04-30T17:28:32.842Z,1
2024-04-30T17:30:32.931Z,1
2024-04-30T17:34:33.176Z,1
2024-04-30T17:38:33.373Z,1
2024-04-30T17:40:33.471Z,2
2024-04-30T17:44:33.703Z,2
2024-04-30T17:46:33.825Z,2
2024-04-30T17:48:34.118Z,2
2024-04-30T17:50:34.004Z,1
2024-04-30T17:52:34.328Z,1
2024-04-30T17:54:34.273Z,1
2024-04-30T17:56:34.400Z,1
2024-04-30T17:58:34.452Z,1
2024-04-30T18:00:34.688Z,1
2024-04-30T18:02:34.667Z,2
2024-04-30T18:04:34.860Z,2
2024-04-30T18:06:34.920Z,1
2024-04-30T18:08:35.045Z,1
2024-04-30T18:14:35.295Z,1
2024-04-30T18:16:35.413Z,1
2024-04-30T18:18:35.523Z,1
2024-04-30T18:20:35.608Z,1
2024-04-30T18:22:35.698Z,1
2024-04-30T18:24:35.865Z,1
2024-04-30T18:28:36.163Z,1
2024-04-30T18:30:36.233Z,1
2024-04-30T18:36:36.467Z,1
2024-04-30T18:38:40.045Z,1
2024-04-30T18:40:36.585Z,1
2024-04-30T18:42:36.731Z,2
2024-04-30T18:46:36.888Z,1
2024-04-30T18:48:37.095Z,1
2024-04-30T18:50:37.090Z,1
2024-04-30T18:52:37.189Z,1
2024-04-30T18:54:37.298Z,1
2024-04-30T18:56:37.352Z,2
2024-04-30T18:58:37.461Z,2
2024-04-30T19:00:37.629Z,2
2024-04-30T19:04:37.886Z,2
2024-04-30T19:06:37.835Z,2
2024-04-30T19:08:37.911Z,2
2024-04-30T19:10:38.004Z,1
2024-04-30T19:12:38.126Z,1
2024-04-30T19:14:38.200Z,2
2024-04-30T19:16:38.292Z,2
2024-04-30T19:18:38.605Z,1
2024-04-30T19:20:38.544Z,2
2024-04-30T19:22:38.586Z,2
2024-04-30T19:24:38.755Z,2
2024-04-30T19:28:38.846Z,2
2024-04-30T19:30:39.005Z,2
2024-04-30T19:32:39.122Z,2
2024-04-30T19:34:39.167Z,2
2024-04-30T19:38:39.340Z,2
2024-04-30T19:40:39.416Z,2
2024-04-30T19:42:39.521Z,2
2024-04-30T19:44:39.601Z,2
2024-04-30T19:46:39.661Z,3
2024-04-30T19:48:40.009Z,3
2024-04-30T19:52:39.940Z,2
2024-04-30T19:54:40.026Z,2
2024-04-30T19:56:40.105Z,3
2024-04-30T19:59:10.248Z,2
2024-04-30T20:01:10.426Z,1
2024-04-30T20:03:10.599Z,1
2024-04-30T20:05:10.612Z,1
2024-04-30T20:09:10.835Z,1
2024-04-30T20:11:10.941Z,1
2024-04-30T20:15:11.153Z,1
2024-04-30T20:17:11.279Z,1
2024-04-30T20:19:11.400Z,1
2024-04-30T20:23:11.629Z,2
2024-04-30T20:25:11.756Z,2
2024-04-30T20:27:11.896Z,2
2024-04-30T20:29:12.066Z,2
2024-04-30T20:31:12.071Z,2
2024-04-30T20:35:12.295Z,2
2024-04-30T20:37:12.392Z,1
2024-04-30T20:39:12.510Z,1
2024-04-30T20:41:12.636Z,1
2024-04-30T20:45:12.897Z,1
2024-04-30T20:49:13.206Z,1
2024-04-30T20:55:13.378Z,1
2024-04-30T20:57:13.488Z,1
2024-04-30T20:59:13.635Z,1
2024-04-30T21:01:13.798Z,2
2024-04-30T21:05:13.981Z,2
2024-04-30T21:09:14.164Z,1
2024-04-30T21:11:14.344Z,2
2024-04-30T21:13:14.343Z,2
2024-04-30T21:15:14.433Z,2
2024-04-30T21:17:14.531Z,2
2024-04-30T21:19:15.106Z,2
2024-04-30T21:21:14.758Z,2
2024-04-30T21:25:14.948Z,2
2024-04-30T21:27:15.058Z,1
2024-04-30T21:31:15.277Z,1
2024-04-30T21:33:15.439Z,1
2024-04-30T21:35:15.504Z,1
2024-04-30T21:37:15.707Z,1
2024-04-30T21:39:15.889Z,1
2024-04-30T21:43:15.883Z,1
2024-04-30T21:47:16.072Z,1
2024-04-30T21:49:16.236Z,1
2024-04-30T21:51:16.278Z,1
2024-04-30T21:53:16.422Z,1
2024-04-30T21:55:16.485Z,1
2024-04-30T21:59:16.702Z,1
2024-04-30T22:03:16.994Z,1
2024-04-30T22:05:16.962Z,1
2024-04-30T22:07:19.116Z,1
2024-04-30T22:09:17.155Z,1
2024-04-30T22:11:17.267Z,1
2024-04-30T22:13:17.360Z,1
2024-04-30T22:15:17.439Z,1
2024-04-30T22:17:17.616Z,1
2024-04-30T22:19:17.716Z,1
2024-04-30T22:21:20.365Z,1
2024-04-30T22:23:17.831Z,1
2024-04-30T22:33:18.403Z,0
2024-04-30T22:35:18.412Z,0
2024-04-30T22:37:18.531Z,0
2024-04-30T22:39:18.603Z,1
2024-04-30T22:41:18.718Z,0
2024-04-30T22:43:18.801Z,1
2024-04-30T22:51:19.251Z,1
2024-04-30T22:53:19.252Z,1
2024-04-30T22:55:19.326Z,1
2024-04-30T22:59:19.528Z,1
2024-04-30T23:03:19.804Z,0
2024-04-30T23:05:19.793Z,1
2024-04-30T23:07:19.856Z,0
2024-04-30T23:09:20.006Z,1
2024-04-30T23:13:50.199Z,0
2024-04-30T23:19:50.611Z,1
2024-04-30T23:23:50.767Z,1
2024-04-30T23:25:50.922Z,1
2024-04-30T23:31:51.217Z,0
2024-04-30T23:35:51.547Z,1
2024-04-30T23:37:51.520Z,0
2024-04-30T23:39:51.660Z,1
2024-04-30T23:41:51.738Z,0
2024-04-30T23:43:51.850Z,1
2024-04-30T23:45:52.026Z,0
2024-04-30T23:49:52.179Z,1
2024-04-30T23:51:52.309Z,0
